createdAt,value
2023-02-08T00:00:50.401Z,16.37
2023-02-08T00:03:17.583Z,14.90
2023-02-08T00:05:44.338Z,16.20
2023-02-08T00:08:11.133Z,16.27
2023-02-08T00:10:37.908Z,16.80
2023-02-08T00:13:04.718Z,14.70
2023-02-08T00:15:31.798Z,14.67
2023-02-08T00:17:58.525Z,15.57
2023-02-08T00:20:25.213Z,15.20
2023-02-08T00:22:53.269Z,15.77
2023-02-08T00:25:20.296Z,15.87
2023-02-08T00:27:47.043Z,14.73
2023-02-08T00:30:13.868Z,15.17
2023-02-08T00:32:40.539Z,14.23
2023-02-08T00:35:07.625Z,13.77
2023-02-08T00:37:34.394Z,14.33
2023-02-08T00:40:02.565Z,15.60
2023-02-08T00:42:30.252Z,14.60
2023-02-08T00:44:57.148Z,14.87
2023-02-08T00:47:24.449Z,14.33
2023-02-08T00:49:51.676Z,14.50
2023-02-08T00:52:19.123Z,13.37
2023-02-08T00:54:46.869Z,14.13
2023-02-08T00:57:14.720Z,14.13
2023-02-08T00:59:41.524Z,12.73
2023-02-08T01:02:08.412Z,10.87
2023-02-08T01:04:35.142Z,10.73
2023-02-08T01:07:01.840Z,10.90
2023-02-08T01:09:28.792Z,15.50
2023-02-08T01:11:55.473Z,15.73
2023-02-08T01:14:22.216Z,14.87
2023-02-08T01:16:49.114Z,15.07
2023-02-08T01:19:16.337Z,16.10
2023-02-08T01:21:43.985Z,14.67
2023-02-08T01:24:12.265Z,14.77
2023-02-08T01:26:39.165Z,14.23
2023-02-08T01:29:06.290Z,13.80
2023-02-08T01:31:35.700Z,13.60
2023-02-08T01:34:03.271Z,12.90
2023-02-08T01:36:31.488Z,13.63
2023-02-08T01:38:58.591Z,14.17
2023-02-08T01:41:31.746Z,12.83
2023-02-08T01:44:13.545Z,14.87
2023-02-08T01:46:43.043Z,13.50
2023-02-08T01:49:34.637Z,13.10
2023-02-08T01:52:06.128Z,13.93
2023-02-08T01:54:38.185Z,13.77
2023-02-08T01:57:06.182Z,13.48
2023-02-08T01:59:41.195Z,13.53
2023-02-08T02:02:11.853Z,13.97
2023-02-08T02:04:39.172Z,15.27
2023-02-08T02:07:06.591Z,13.93
2023-02-08T02:09:45.794Z,14.90
2023-02-08T02:12:14.026Z,14.17
2023-02-08T02:14:42.347Z,11.93
2023-02-08T02:17:11.882Z,12.37
2023-02-08T02:20:10.620Z,12.33
2023-02-08T02:22:55.171Z,13.87
2023-02-08T02:25:50.621Z,12.90
2023-02-08T02:28:50.060Z,12.73
2023-02-08T02:32:01.326Z,12.83
2023-02-08T02:35:04.242Z,12.67
2023-02-08T02:37:49.094Z,14.60
2023-02-08T02:40:21.696Z,13.23
2023-02-08T02:43:19.090Z,14.70
2023-02-08T02:46:22.973Z,13.03
2023-02-08T02:49:11.226Z,13.20
2023-02-08T02:51:48.380Z,14.10
2023-02-08T02:54:27.457Z,14.27
2023-02-08T02:57:00.696Z,13.10
2023-02-08T02:59:28.771Z,13.67
2023-02-08T03:01:56.690Z,13.67
2023-02-08T03:04:32.741Z,15.00
2023-02-08T03:07:26.508Z,15.60
2023-02-08T03:10:11.741Z,13.65
2023-02-08T03:13:05.913Z,15.00
2023-02-08T03:16:03.118Z,14.18
2023-02-08T03:18:50.192Z,13.00
2023-02-08T03:21:28.681Z,14.67
2023-02-08T03:24:37.473Z,13.93
2023-02-08T03:27:23.368Z,14.77
2023-02-08T03:30:22.295Z,14.10
2023-02-08T03:33:05.675Z,13.13
2023-02-08T03:35:53.302Z,13.80
2023-02-08T03:38:26.151Z,13.83
2023-02-08T03:43:33.915Z,13.87
2023-02-08T03:46:10.855Z,14.13
2023-02-08T03:48:40.557Z,14.07
2023-02-08T03:51:09.141Z,13.27
2023-02-08T03:53:40.428Z,13.87
2023-02-08T03:56:14.718Z,14.73
2023-02-08T03:59:03.593Z,12.70
2023-02-08T04:01:41.030Z,13.73
2023-02-08T04:04:08.557Z,13.90
2023-02-08T04:06:35.264Z,13.47
2023-02-08T04:09:02.007Z,13.80
2023-02-08T04:11:28.830Z,15.07
2023-02-08T04:13:55.555Z,14.17
2023-02-08T04:16:22.284Z,15.57
2023-02-08T04:18:49.057Z,15.10
2023-02-08T04:21:17.094Z,15.30
2023-02-08T04:23:43.909Z,14.87
2023-02-08T04:26:10.712Z,15.43
2023-02-08T04:28:37.482Z,13.80
2023-02-08T04:31:04.373Z,14.07
2023-02-08T04:33:31.201Z,14.43
2023-02-08T04:35:57.952Z,15.07
2023-02-08T04:38:24.668Z,14.93
2023-02-08T04:40:51.385Z,14.80
2023-02-08T04:43:18.126Z,15.27
2023-02-08T04:45:45.061Z,14.37
2023-02-08T04:48:12.125Z,14.07
2023-02-08T04:50:39.585Z,15.33
2023-02-08T04:53:06.736Z,13.50
2023-02-08T04:55:34.012Z,13.47
2023-02-08T04:58:00.791Z,14.03
2023-02-08T05:00:27.869Z,14.17
2023-02-08T05:02:57.115Z,13.20
2023-02-08T05:05:28.470Z,14.63
2023-02-08T05:07:55.220Z,15.03
2023-02-08T05:10:22.517Z,13.60
2023-02-08T05:12:49.285Z,12.93
2023-02-08T05:15:16.088Z,13.93
2023-02-08T05:17:42.858Z,13.53
2023-02-08T05:20:11.036Z,13.80
2023-02-08T05:22:37.957Z,14.20
2023-02-08T05:25:05.608Z,14.00
2023-02-08T05:27:34.534Z,14.90
2023-02-08T05:30:01.613Z,14.07
2023-02-08T05:32:28.651Z,13.90
2023-02-08T05:34:55.365Z,14.07
2023-02-08T05:37:22.096Z,15.30
2023-02-08T05:39:48.809Z,16.17
2023-02-08T05:42:15.551Z,13.80
2023-02-08T05:44:42.294Z,13.90
2023-02-08T05:47:09.060Z,15.10
2023-02-08T05:49:35.789Z,14.40
2023-02-08T05:52:02.531Z,13.20
2023-02-08T05:54:29.271Z,13.93
2023-02-08T05:56:56.027Z,19.40
2023-02-08T05:59:22.777Z,18.27
2023-02-08T06:01:49.504Z,15.30
2023-02-08T06:04:16.305Z,16.00
2023-02-08T06:06:43.328Z,18.90
2023-02-08T06:09:10.107Z,16.33
2023-02-08T06:11:36.865Z,19.07
2023-02-08T06:14:04.833Z,18.60
2023-02-08T06:16:31.635Z,17.23
2023-02-08T06:18:58.412Z,14.60
2023-02-08T06:21:25.334Z,15.40
2023-02-08T06:23:52.159Z,15.13
2023-02-08T06:26:18.888Z,14.77
2023-02-08T06:28:45.750Z,14.50
2023-02-08T06:31:12.476Z,15.63
2023-02-08T06:33:39.264Z,14.40
2023-02-08T06:36:06.591Z,15.33
2023-02-08T06:38:33.347Z,14.30
2023-02-08T06:41:00.155Z,15.23
2023-02-08T06:43:26.925Z,15.90
2023-02-08T06:45:53.702Z,16.10
2023-02-08T06:48:22.500Z,16.10
2023-02-08T06:50:51.847Z,20.23
2023-02-08T06:53:18.601Z,16.60
2023-02-08T06:55:49.064Z,31.47
2023-02-08T06:58:15.891Z,64.43
2023-02-08T07:00:42.853Z,62.20
2023-02-08T07:03:10.101Z,67.00
2023-02-08T07:05:36.871Z,40.07
2023-02-08T07:08:04.834Z,25.20
2023-02-08T07:10:32.194Z,20.47
2023-02-08T07:12:59.038Z,28.17
2023-02-08T07:15:25.821Z,33.90
2023-02-08T07:17:52.546Z,20.73
2023-02-08T07:20:19.381Z,23.57
2023-02-08T07:22:46.123Z,21.83
2023-02-08T07:25:12.879Z,25.57
2023-02-08T07:27:39.743Z,28.23
2023-02-08T07:30:08.160Z,27.80
2023-02-08T07:32:35.649Z,25.30
2023-02-08T07:35:02.475Z,23.57
2023-02-08T07:37:29.685Z,27.10
2023-02-08T07:39:56.700Z,31.40
2023-02-08T07:42:23.464Z,31.97
2023-02-08T07:44:50.718Z,25.93
2023-02-08T07:47:17.502Z,21.30
2023-02-08T07:49:44.466Z,19.10
2023-02-08T07:52:11.303Z,21.57
2023-02-08T07:54:38.007Z,16.10
2023-02-08T07:57:04.774Z,20.57
2023-02-08T07:59:31.554Z,20.03
2023-02-08T08:01:58.414Z,21.10
2023-02-08T08:04:25.227Z,18.57
2023-02-08T08:06:53.614Z,16.80
2023-02-08T08:09:20.461Z,18.33
2023-02-08T08:11:47.205Z,18.27
2023-02-08T08:14:14.134Z,18.50
2023-02-08T08:16:42.412Z,18.50
2023-02-08T08:19:09.256Z,19.80
2023-02-08T08:21:36.046Z,19.50
2023-02-08T08:24:02.780Z,17.67
2023-02-08T08:26:29.861Z,16.77
2023-02-08T08:28:56.687Z,16.33
2023-02-08T08:31:23.489Z,15.83
2023-02-08T08:33:50.476Z,16.43
2023-02-08T08:36:17.333Z,17.10
2023-02-08T08:38:44.195Z,19.03
2023-02-08T08:41:17.748Z,17.13
2023-02-08T08:43:44.830Z,17.57
2023-02-08T08:46:12.070Z,19.13
2023-02-08T08:48:38.965Z,18.10
2023-02-08T08:51:06.451Z,16.50
2023-02-08T08:53:33.667Z,18.70
2023-02-08T08:56:00.680Z,18.40
2023-02-08T08:58:27.407Z,17.70
2023-02-08T09:00:57.225Z,18.60
2023-02-08T09:03:24.203Z,18.43
2023-02-08T09:05:51.651Z,19.63
2023-02-08T09:08:18.542Z,19.80
2023-02-08T09:10:45.598Z,18.37
2023-02-08T09:13:19.157Z,17.97
2023-02-08T09:15:46.926Z,17.77
2023-02-08T09:18:13.868Z,19.07
2023-02-08T09:20:41.607Z,17.73
2023-02-08T09:23:08.628Z,18.60
2023-02-08T09:25:36.918Z,19.50
2023-02-08T09:28:04.181Z,18.20
2023-02-08T09:30:31.012Z,19.43
2023-02-08T09:32:57.708Z,17.67
2023-02-08T09:35:24.456Z,17.63
2023-02-08T09:37:55.301Z,20.47
2023-02-08T09:40:33.922Z,17.57
2023-02-08T09:43:50.190Z,19.83
2023-02-08T09:46:22.489Z,19.17
2023-02-08T09:48:52.413Z,21.23
2023-02-08T09:51:50.176Z,19.70
2023-02-08T09:54:24.118Z,20.27
2023-02-08T09:56:52.563Z,19.73
2023-02-08T09:59:29.443Z,19.67
2023-02-08T10:02:22.320Z,20.00
2023-02-08T10:05:05.708Z,20.83
2023-02-08T10:10:05.768Z,17.42
2023-02-08T10:12:43.646Z,20.60
2023-02-08T10:15:36.959Z,22.25
2023-02-08T10:18:16.512Z,19.17
2023-02-08T10:20:43.512Z,19.45
2023-02-08T10:23:27.730Z,19.30
2023-02-08T10:26:13.100Z,18.50
2023-02-08T10:29:02.830Z,17.90
2023-02-08T10:31:53.558Z,16.75
2023-02-08T10:34:34.164Z,18.23
2023-02-08T10:37:04.888Z,17.33
2023-02-08T10:39:35.809Z,16.58
2023-02-08T10:42:04.418Z,17.52
2023-02-08T10:44:45.780Z,17.42
2023-02-08T10:47:32.394Z,16.65
2023-02-08T10:50:07.297Z,17.50
2023-02-08T10:52:34.156Z,16.33
2023-02-08T10:55:01.264Z,16.73
2023-02-08T10:57:34.451Z,18.25
2023-02-08T11:00:31.151Z,17.83
2023-02-08T11:03:03.457Z,15.43
2023-02-08T11:05:35.980Z,16.17
2023-02-08T11:08:16.052Z,15.15
2023-02-08T11:11:03.936Z,15.55
2023-02-08T11:13:37.990Z,15.93
2023-02-08T11:16:07.218Z,16.65
2023-02-08T11:18:37.857Z,16.17
2023-02-08T11:21:10.502Z,15.10
2023-02-08T11:23:41.469Z,15.52
2023-02-08T11:26:37.020Z,13.55
2023-02-08T11:29:09.800Z,13.60
2023-02-08T11:31:36.785Z,13.07
2023-02-08T11:34:11.561Z,14.30
2023-02-08T11:36:48.519Z,14.60
2023-02-08T11:39:49.434Z,13.10
2023-02-08T11:42:25.990Z,12.70
2023-02-08T11:44:55.202Z,12.85
2023-02-08T11:47:32.387Z,11.23
2023-02-08T11:50:02.225Z,11.95
2023-02-08T11:52:35.498Z,12.18
2023-02-08T11:55:16.731Z,10.52
2023-02-08T11:58:24.077Z,9.85
2023-02-08T12:01:06.497Z,8.07
2023-02-08T12:03:38.658Z,7.90
2023-02-08T12:06:28.692Z,9.15
2023-02-08T12:09:13.355Z,7.50
2023-02-08T12:11:46.370Z,6.80
2023-02-08T12:14:34.348Z,7.50
2023-02-08T12:17:20.947Z,7.82
2023-02-08T12:20:23.380Z,6.55
2023-02-08T12:23:15.054Z,7.35
2023-02-08T12:25:47.265Z,6.82
2023-02-08T12:28:27.836Z,7.68
2023-02-08T12:31:27.060Z,7.10
2023-02-08T12:34:12.625Z,8.02
2023-02-08T12:37:18.164Z,6.93
2023-02-08T12:40:03.520Z,7.10
2023-02-08T12:42:33.517Z,5.80
2023-02-08T12:45:09.944Z,6.97
2023-02-08T12:48:04.349Z,7.07
2023-02-08T12:50:50.656Z,7.50
2023-02-08T12:53:33.417Z,7.72
2023-02-08T12:56:05.515Z,7.40
2023-02-08T12:58:39.866Z,8.43
2023-02-08T13:01:14.497Z,7.82
2023-02-08T13:03:47.714Z,7.38
2023-02-08T13:06:21.322Z,7.57
2023-02-08T13:09:13.099Z,7.63
2023-02-08T13:12:05.066Z,8.20
2023-02-08T13:14:38.156Z,7.78
2023-02-08T13:17:16.873Z,8.23
2023-02-08T13:20:00.139Z,7.70
2023-02-08T13:22:33.023Z,7.72
2023-02-08T13:25:07.696Z,8.80
2023-02-08T13:27:35.432Z,7.88
2023-02-08T13:30:02.813Z,8.48
2023-02-08T13:32:44.045Z,7.68
2023-02-08T13:35:23.781Z,9.20
2023-02-08T13:37:53.103Z,8.85
2023-02-08T13:40:29.607Z,8.85
2023-02-08T13:43:11.012Z,9.23
2023-02-08T13:45:42.399Z,9.32
2023-02-08T13:48:12.859Z,9.60
2023-02-08T13:50:52.509Z,9.25
2023-02-08T13:53:39.270Z,10.60
2023-02-08T13:56:10.635Z,10.23
2023-02-08T13:58:49.377Z,9.98
2023-02-08T14:01:22.241Z,9.52
2023-02-08T14:04:07.116Z,8.73
2023-02-08T14:07:01.008Z,10.07
2023-02-08T14:09:42.032Z,10.68
2023-02-08T14:12:26.871Z,10.45
2023-02-08T14:15:06.961Z,11.73
2023-02-08T14:17:34.417Z,10.73
2023-02-08T14:20:08.195Z,10.63
2023-02-08T14:22:47.883Z,11.07
2023-02-08T14:25:41.874Z,12.52
2023-02-08T14:28:25.908Z,12.88
2023-02-08T14:30:55.881Z,13.23
2023-02-08T14:33:28.137Z,11.88
2023-02-08T14:36:08.300Z,12.25
2023-02-08T14:38:52.139Z,12.07
2023-02-08T14:41:46.809Z,12.70
2023-02-08T14:44:38.645Z,11.75
2023-02-08T14:47:26.802Z,11.35
2023-02-08T14:50:16.167Z,11.82
2023-02-08T14:52:57.704Z,11.27
2023-02-08T14:55:27.847Z,10.68
2023-02-08T14:57:56.676Z,10.93
2023-02-08T15:00:28.419Z,10.68
2023-02-08T15:02:56.531Z,11.65
2023-02-08T15:05:26.145Z,10.23
2023-02-08T15:07:55.556Z,11.18
2023-02-08T15:10:25.738Z,32.08
2023-02-08T15:12:55.965Z,13.73
2023-02-08T15:15:31.322Z,13.88
2023-02-08T15:17:59.783Z,13.65
2023-02-08T15:20:32.620Z,17.48
2023-02-08T15:23:02.386Z,14.27
2023-02-08T15:25:33.868Z,16.33
2023-02-08T15:28:04.037Z,17.58
2023-02-08T15:30:36.536Z,15.57
2023-02-08T15:33:14.799Z,14.93
2023-02-08T15:35:43.220Z,15.07
2023-02-08T15:38:17.937Z,15.25
2023-02-08T15:41:09.753Z,16.60
2023-02-08T15:43:38.113Z,15.95
2023-02-08T15:46:15.778Z,15.60
2023-02-08T15:48:45.798Z,15.90
2023-02-08T15:51:14.690Z,16.13
2023-02-08T15:53:45.085Z,16.40
2023-02-08T15:56:37.174Z,17.20
2023-02-08T15:59:08.136Z,18.58
2023-02-08T16:01:35.147Z,19.20
2023-02-08T16:04:12.410Z,20.55
2023-02-08T16:06:46.384Z,16.90
2023-02-08T16:09:19.007Z,13.93
2023-02-08T16:11:49.847Z,14.27
2023-02-08T16:14:18.716Z,13.77
2023-02-08T16:16:49.929Z,15.60
2023-02-08T16:19:28.449Z,12.57
2023-02-08T16:22:14.601Z,12.15
2023-02-08T16:24:46.865Z,12.95
2023-02-08T16:27:28.758Z,13.23
2023-02-08T16:29:55.880Z,13.80
2023-02-08T16:32:31.958Z,12.38
2023-02-08T16:35:01.265Z,12.85
2023-02-08T16:37:35.478Z,12.77
2023-02-08T16:40:20.436Z,13.13
2023-02-08T16:42:47.337Z,12.95
2023-02-08T16:45:17.141Z,12.38
2023-02-08T16:47:51.622Z,13.30
2023-02-08T16:50:29.190Z,13.70
2023-02-08T16:53:03.739Z,13.63
2023-02-08T16:55:33.183Z,12.73
2023-02-08T16:57:59.971Z,13.55
2023-02-08T17:00:31.313Z,13.85
2023-02-08T17:02:58.704Z,13.90
2023-02-08T17:05:29.454Z,14.55
2023-02-08T17:07:56.877Z,16.27
2023-02-08T17:10:23.752Z,15.77
2023-02-08T17:12:50.594Z,15.15
2023-02-08T17:15:17.876Z,14.65
2023-02-08T17:17:44.668Z,15.77
2023-02-08T17:20:31.016Z,20.35
2023-02-08T17:23:00.077Z,20.80
2023-02-08T17:25:28.045Z,20.27
2023-02-08T17:28:02.284Z,20.35
2023-02-08T17:30:31.934Z,18.45
2023-02-08T17:32:58.850Z,18.15
2023-02-08T17:35:28.295Z,16.50
2023-02-08T17:37:56.811Z,23.20
2023-02-08T17:40:27.023Z,27.05
2023-02-08T17:42:54.348Z,32.85
2023-02-08T17:45:21.270Z,24.80
2023-02-08T17:47:48.250Z,19.90
2023-02-08T17:50:18.174Z,18.38
2023-02-08T17:52:45.864Z,16.92
2023-02-08T17:55:15.204Z,15.45
2023-02-08T17:57:43.052Z,14.77
2023-02-08T18:00:15.954Z,21.02
2023-02-08T18:02:47.469Z,16.15
2023-02-08T18:05:20.225Z,16.15
2023-02-08T18:07:47.305Z,18.02
2023-02-08T18:10:15.488Z,16.58
2023-02-08T18:12:42.940Z,20.97
2023-02-08T18:15:13.305Z,19.67
2023-02-08T18:17:40.966Z,18.83
2023-02-08T18:20:09.689Z,20.02
2023-02-08T18:22:37.993Z,17.92
2023-02-08T18:25:05.607Z,17.83
2023-02-08T18:27:32.368Z,17.83
2023-02-08T18:29:59.660Z,16.25
2023-02-08T18:32:28.076Z,13.93
2023-02-08T18:34:55.627Z,17.43
2023-02-08T18:37:23.264Z,15.90
2023-02-08T18:39:52.183Z,18.80
2023-02-08T18:42:19.202Z,17.53
2023-02-08T18:44:46.027Z,18.03
2023-02-08T18:47:12.794Z,19.27
2023-02-08T18:49:42.322Z,17.43
2023-02-08T18:52:11.470Z,16.07
2023-02-08T18:54:39.530Z,14.13
2023-02-08T18:57:09.580Z,21.10
2023-02-08T18:59:39.033Z,17.77
2023-02-08T19:02:07.149Z,16.07
2023-02-08T19:04:38.478Z,17.03
2023-02-08T19:07:05.934Z,14.33
2023-02-08T19:09:35.917Z,22.10
2023-02-08T19:12:03.315Z,17.90
2023-02-08T19:14:30.200Z,15.73
2023-02-08T19:16:56.988Z,18.90
2023-02-08T19:19:23.718Z,14.77
2023-02-08T19:21:50.514Z,15.97
2023-02-08T19:24:19.460Z,16.03
2023-02-08T19:26:47.064Z,15.87
2023-02-08T19:29:16.424Z,15.17
2023-02-08T19:31:44.716Z,14.67
2023-02-08T19:34:12.880Z,14.00
2023-02-08T19:36:49.446Z,15.73
2023-02-08T19:39:20.584Z,15.17
2023-02-08T19:41:47.831Z,15.40
2023-02-08T19:44:17.217Z,15.70
2023-02-08T19:46:51.809Z,16.10
2023-02-08T19:49:18.835Z,13.37
2023-02-08T19:51:45.605Z,12.80
2023-02-08T19:54:15.947Z,13.97
2023-02-08T19:56:42.846Z,13.73
2023-02-08T19:59:18.633Z,15.40
2023-02-08T20:01:46.083Z,14.30
2023-02-08T20:04:13.586Z,13.70
2023-02-08T20:06:40.866Z,13.37
2023-02-08T20:09:08.559Z,14.77
2023-02-08T20:11:54.753Z,13.10
2023-02-08T20:14:23.664Z,13.37
2023-02-08T20:16:50.416Z,13.87
2023-02-08T20:19:17.383Z,14.57
2023-02-08T20:21:45.370Z,13.40
2023-02-08T20:24:13.021Z,12.80
2023-02-08T20:26:42.909Z,13.40
2023-02-08T20:29:10.227Z,12.77
2023-02-08T20:31:38.884Z,13.23
2023-02-08T20:34:08.589Z,14.00
2023-02-08T20:36:40.373Z,12.33
2023-02-08T20:39:08.698Z,12.53
2023-02-08T20:41:35.598Z,12.73
2023-02-08T20:44:02.344Z,13.57
2023-02-08T20:46:33.717Z,12.57
2023-02-08T20:49:02.406Z,12.33
2023-02-08T20:51:30.301Z,12.40
2023-02-08T20:54:00.416Z,11.87
2023-02-08T20:56:30.269Z,13.23
2023-02-08T20:58:57.213Z,11.97
2023-02-08T21:01:26.657Z,12.63
2023-02-08T21:03:55.135Z,12.30
2023-02-08T21:06:26.452Z,11.47
2023-02-08T21:08:55.306Z,11.70
2023-02-08T21:11:24.944Z,13.07
2023-02-08T21:13:52.065Z,12.17
2023-02-08T21:16:19.153Z,13.17
2023-02-08T21:18:47.031Z,14.20
2023-02-08T21:21:15.336Z,12.90
2023-02-08T21:23:43.025Z,13.73
2023-02-08T21:26:11.929Z,13.60
2023-02-08T21:28:38.771Z,12.17
2023-02-08T21:31:14.533Z,13.40
2023-02-08T21:33:42.756Z,11.53
2023-02-08T21:36:14.230Z,14.13
2023-02-08T21:38:41.713Z,12.80
2023-02-08T21:41:16.783Z,12.20
2023-02-08T21:43:43.552Z,11.07
2023-02-08T21:46:10.546Z,12.00
2023-02-08T21:48:55.790Z,15.33
2023-02-08T21:51:43.037Z,15.53
2023-02-08T21:54:35.159Z,13.43
2023-02-08T21:57:03.940Z,12.73
2023-02-08T21:59:36.486Z,11.47
2023-02-08T22:02:21.894Z,11.65
2023-02-08T22:04:49.486Z,13.80
2023-02-08T22:07:16.452Z,14.07
2023-02-08T22:09:43.326Z,11.27
2023-02-08T22:12:15.458Z,13.00
2023-02-08T22:14:42.520Z,13.10
2023-02-08T22:17:09.826Z,13.50
2023-02-08T22:19:38.649Z,14.47
2023-02-08T22:22:05.913Z,14.70
2023-02-08T22:24:34.030Z,13.67
2023-02-08T22:27:01.702Z,13.83
2023-02-08T22:29:28.871Z,12.23
2023-02-08T22:31:55.675Z,13.23
2023-02-08T22:34:22.543Z,13.57
2023-02-08T22:36:49.303Z,13.00
2023-02-08T22:39:16.074Z,12.00
2023-02-08T22:41:42.855Z,12.00
2023-02-08T22:44:09.596Z,10.77
2023-02-08T22:46:36.372Z,11.07
2023-02-08T22:49:03.225Z,11.70
2023-02-08T22:51:30.261Z,10.77
2023-02-08T22:53:56.970Z,10.60
2023-02-08T22:56:23.692Z,12.70
2023-02-08T22:58:50.453Z,10.80
2023-02-08T23:01:17.742Z,9.73
2023-02-08T23:03:44.686Z,10.33
2023-02-08T23:06:15.802Z,11.17
2023-02-08T23:08:44.288Z,11.30
2023-02-08T23:11:13.342Z,11.20
2023-02-08T23:13:40.814Z,15.93
2023-02-08T23:16:07.725Z,12.20
2023-02-08T23:18:35.907Z,11.37
2023-02-08T23:21:07.805Z,11.20
2023-02-08T23:23:34.693Z,11.37
2023-02-08T23:26:05.077Z,11.63
2023-02-08T23:28:32.382Z,10.17
2023-02-08T23:31:00.020Z,12.87
2023-02-08T23:33:26.820Z,11.30
2023-02-08T23:35:53.544Z,11.47
2023-02-08T23:38:20.368Z,11.23
2023-02-08T23:40:47.261Z,11.50
2023-02-08T23:43:14.146Z,10.70
2023-02-08T23:45:40.956Z,12.23
2023-02-08T23:48:07.731Z,12.60
2023-02-08T23:50:34.501Z,12.50
2023-02-08T23:53:01.232Z,12.83
2023-02-08T23:55:28.055Z,12.23
2023-02-08T23:57:54.795Z,11.60
